createdAt,value
2017-12-10T00:00:43.880Z,952.21
2017-12-10T00:01:43.891Z,952.21
2017-12-10T00:02:43.902Z,952.24
2017-12-10T00:03:43.912Z,952.22
2017-12-10T00:04:43.925Z,952.23
2017-12-10T00:05:43.933Z,952.21
2017-12-10T00:06:43.944Z,952.24
2017-12-10T00:07:43.957Z,952.2
2017-12-10T00:08:43.967Z,952.21
2017-12-10T00:09:43.979Z,952.2
2017-12-10T00:10:43.999Z,952.22
2017-12-10T00:11:44.050Z,952.15
2017-12-10T00:12:44.012Z,952.14
2017-12-10T00:13:44.023Z,952.17
2017-12-10T00:14:44.033Z,952.15
2017-12-10T00:15:44.045Z,952.16
2017-12-10T00:16:44.056Z,952.18
2017-12-10T00:17:44.066Z,952.14
2017-12-10T00:18:44.077Z,952.19
2017-12-10T00:19:44.091Z,952.16
2017-12-10T00:20:44.099Z,952.15
2017-12-10T00:21:44.111Z,952.14
2017-12-10T00:22:44.141Z,952.13
2017-12-10T00:23:44.132Z,952.15
2017-12-10T00:24:44.144Z,952.16
2017-12-10T00:25:44.156Z,952.15
2017-12-10T00:26:44.216Z,952.17
2017-12-10T00:27:44.179Z,952.19
2017-12-10T00:28:44.188Z,952.16
2017-12-10T00:29:44.200Z,952.18
2017-12-10T00:30:44.209Z,952.22
2017-12-10T00:31:44.222Z,952.17
2017-12-10T00:32:44.232Z,952.17
2017-12-10T00:33:44.245Z,952.12
2017-12-10T00:34:44.255Z,952.11
2017-12-10T00:35:44.265Z,952.12
2017-12-10T00:36:44.277Z,952.08
2017-12-10T00:37:44.288Z,952.05
2017-12-10T00:38:44.301Z,952.06
2017-12-10T00:39:44.311Z,951.99
2017-12-10T00:40:44.321Z,951.99
2017-12-10T00:41:44.383Z,952.03
2017-12-10T00:42:44.343Z,951.97
2017-12-10T00:43:44.355Z,951.93
2017-12-10T00:44:44.368Z,951.91
2017-12-10T00:45:44.377Z,951.9
2017-12-10T00:46:44.389Z,951.88
2017-12-10T00:47:44.400Z,951.86
2017-12-10T00:48:44.412Z,951.86
2017-12-10T00:49:44.423Z,951.83
2017-12-10T00:50:44.435Z,951.85
2017-12-10T00:51:44.446Z,951.77
2017-12-10T00:52:44.456Z,951.8
2017-12-10T00:53:44.470Z,951.81
2017-12-10T00:54:44.479Z,951.75
2017-12-10T00:55:44.490Z,951.78
2017-12-10T00:56:44.550Z,951.71
2017-12-10T00:57:44.513Z,951.72
2017-12-10T00:58:44.524Z,951.64
2017-12-10T00:59:44.535Z,951.69
2017-12-10T01:00:44.547Z,951.67
2017-12-10T01:01:44.559Z,951.68
2017-12-10T01:02:44.571Z,951.64
2017-12-10T01:03:44.580Z,951.6
2017-12-10T01:04:44.591Z,951.57
2017-12-10T01:05:44.603Z,951.55
2017-12-10T01:06:44.615Z,951.58
2017-12-10T01:07:44.625Z,951.55
2017-12-10T01:08:44.636Z,951.51
2017-12-10T01:09:44.649Z,951.52
2017-12-10T01:10:44.660Z,951.51
2017-12-10T01:11:44.669Z,951.55
2017-12-10T01:12:44.681Z,951.54
2017-12-10T01:13:44.693Z,951.51
2017-12-10T01:14:44.703Z,951.54
2017-12-10T01:15:44.729Z,951.51
2017-12-10T01:16:44.739Z,951.5
2017-12-10T01:17:44.738Z,951.46
2017-12-10T01:18:44.749Z,951.44
2017-12-10T01:19:44.760Z,951.49
2017-12-10T01:20:44.770Z,951.45
2017-12-10T01:21:44.783Z,951.42
2017-12-10T01:22:44.795Z,951.42
2017-12-10T01:23:44.807Z,951.43
2017-12-10T01:24:44.814Z,951.39
2017-12-10T01:25:44.826Z,951.36
2017-12-10T01:26:44.836Z,951.39
2017-12-10T01:27:44.848Z,951.43
2017-12-10T01:28:44.859Z,951.36
2017-12-10T01:29:44.925Z,951.37
2017-12-10T01:30:44.886Z,951.39
2017-12-10T01:31:44.892Z,951.35
2017-12-10T01:32:44.902Z,951.33
2017-12-10T01:33:44.912Z,951.31
2017-12-10T01:34:44.923Z,951.31
2017-12-10T01:35:44.935Z,951.33
2017-12-10T01:36:44.945Z,951.33
2017-12-10T01:37:44.960Z,951.26
2017-12-10T01:38:44.968Z,951.26
2017-12-10T01:39:45.030Z,951.22
2017-12-10T01:40:44.990Z,951.23
2017-12-10T01:41:45.001Z,951.22
2017-12-10T01:42:45.012Z,951.2
2017-12-10T01:43:45.023Z,951.17
2017-12-10T01:44:45.091Z,951.11
2017-12-10T01:45:45.045Z,951.11
2017-12-10T01:46:45.061Z,951.13
2017-12-10T01:47:45.067Z,951.17
2017-12-10T01:48:45.078Z,951.12
2017-12-10T01:49:45.091Z,951.12
2017-12-10T01:50:45.105Z,951.13
2017-12-10T01:51:45.112Z,951.13
2017-12-10T01:52:45.123Z,951.08
2017-12-10T01:53:45.136Z,951.06
2017-12-10T01:54:45.174Z,951.06
2017-12-10T01:55:45.156Z,951.07
2017-12-10T01:56:45.166Z,951.01
2017-12-10T01:57:45.178Z,951.03
2017-12-10T01:58:45.189Z,950.99
2017-12-10T01:59:45.251Z,950.96
2017-12-10T02:00:45.217Z,950.96
2017-12-10T02:01:45.223Z,950.93
2017-12-10T02:02:45.232Z,950.89
2017-12-10T02:03:45.246Z,950.83
2017-12-10T02:04:45.256Z,950.74
2017-12-10T02:05:45.267Z,950.72
2017-12-10T02:06:45.276Z,950.67
2017-12-10T02:07:45.289Z,950.62
2017-12-10T02:08:45.307Z,950.58
2017-12-10T02:09:45.310Z,950.58
2017-12-10T02:10:45.320Z,950.6
2017-12-10T02:11:45.332Z,950.59
2017-12-10T02:12:45.345Z,950.52
2017-12-10T02:13:45.354Z,950.45
2017-12-10T02:14:45.416Z,950.43
2017-12-10T02:15:45.377Z,950.38
2017-12-10T02:16:45.387Z,950.41
2017-12-10T02:17:45.398Z,950.32
2017-12-10T02:18:45.409Z,950.33
2017-12-10T02:19:45.420Z,950.31
2017-12-10T02:20:45.431Z,950.26
2017-12-10T02:21:45.442Z,950.26
2017-12-10T02:22:45.455Z,950.23
2017-12-10T02:23:45.464Z,950.22
2017-12-10T02:24:45.476Z,950.21
2017-12-10T02:25:45.485Z,950.17
2017-12-10T02:26:45.498Z,950.13
2017-12-10T02:27:45.507Z,950.13
2017-12-10T02:28:45.519Z,950.11
2017-12-10T02:29:45.580Z,950.08
2017-12-10T02:30:45.540Z,950.04
2017-12-10T02:31:45.552Z,950.08
2017-12-10T02:32:45.563Z,950.04
2017-12-10T02:33:45.575Z,950.03
2017-12-10T02:34:45.586Z,950.04
2017-12-10T02:35:45.596Z,950.04
2017-12-10T02:36:45.609Z,950.03
2017-12-10T02:37:45.616Z,950.01
2017-12-10T02:38:45.629Z,949.99
2017-12-10T02:39:45.640Z,949.98
2017-12-10T02:40:45.650Z,949.95
2017-12-10T02:41:45.662Z,949.96
2017-12-10T02:42:45.672Z,949.94
2017-12-10T02:43:45.712Z,949.94
2017-12-10T02:44:45.743Z,949.91
2017-12-10T02:45:45.705Z,949.85
2017-12-10T02:46:45.715Z,949.79
2017-12-10T02:47:45.725Z,949.84
2017-12-10T02:48:45.758Z,949.78
2017-12-10T02:49:45.747Z,949.81
2017-12-10T02:50:45.760Z,949.79
2017-12-10T02:51:45.770Z,949.78
2017-12-10T02:52:45.781Z,949.74
2017-12-10T02:53:45.790Z,949.75
2017-12-10T02:54:45.803Z,949.73
2017-12-10T02:55:45.824Z,949.71
2017-12-10T02:56:45.828Z,949.68
2017-12-10T02:57:45.835Z,949.66
2017-12-10T02:58:45.845Z,949.62
2017-12-10T02:59:45.856Z,949.63
2017-12-10T03:00:45.866Z,949.67
2017-12-10T03:01:45.927Z,949.61
2017-12-10T03:02:45.893Z,949.51
2017-12-10T03:03:45.905Z,949.51
2017-12-10T03:04:45.911Z,949.46
2017-12-10T03:05:45.920Z,949.47
2017-12-10T03:06:45.932Z,949.47
2017-12-10T03:07:45.941Z,949.41
2017-12-10T03:08:45.953Z,949.4
2017-12-10T03:09:45.967Z,949.36
2017-12-10T03:10:45.973Z,949.37
2017-12-10T03:11:45.984Z,949.33
2017-12-10T03:12:45.995Z,949.34
2017-12-10T03:13:46.006Z,949.27
2017-12-10T03:14:46.016Z,949.31
2017-12-10T03:15:46.027Z,949.28
2017-12-10T03:16:46.088Z,949.27
2017-12-10T03:17:46.050Z,949.25
2017-12-10T03:18:46.059Z,949.19
2017-12-10T03:19:46.071Z,949.18
2017-12-10T03:20:46.083Z,949.15
2017-12-10T03:21:46.093Z,949.1
2017-12-10T03:22:46.106Z,949.05
2017-12-10T03:23:46.115Z,949.03
2017-12-10T03:24:46.125Z,949
2017-12-10T03:25:46.137Z,948.97
2017-12-10T03:26:46.147Z,949.04
2017-12-10T03:27:46.158Z,949.01
2017-12-10T03:28:46.175Z,949.03
2017-12-10T03:29:46.179Z,949.03
2017-12-10T03:30:46.191Z,949.05
2017-12-10T03:31:46.251Z,949.1
2017-12-10T03:32:46.211Z,949.05
2017-12-10T03:33:46.224Z,949.06
2017-12-10T03:34:46.233Z,948.97
2017-12-10T03:35:46.243Z,948.91
2017-12-10T03:36:46.256Z,948.93
2017-12-10T03:37:46.265Z,948.86
2017-12-10T03:38:46.275Z,948.86
2017-12-10T03:39:46.287Z,948.82
2017-12-10T03:40:46.295Z,948.79
2017-12-10T03:41:46.306Z,948.77
2017-12-10T03:42:46.317Z,948.74
2017-12-10T03:43:46.328Z,948.74
2017-12-10T03:44:46.342Z,948.7
2017-12-10T03:45:46.347Z,948.67
2017-12-10T03:46:46.409Z,948.66
2017-12-10T03:47:46.370Z,948.66
2017-12-10T03:48:46.380Z,948.66
2017-12-10T03:49:46.397Z,948.57
2017-12-10T03:50:46.402Z,948.57
2017-12-10T03:51:46.411Z,948.59
2017-12-10T03:52:46.423Z,948.52
2017-12-10T03:53:46.433Z,948.58
2017-12-10T03:54:46.444Z,948.51
2017-12-10T03:55:46.453Z,948.52
2017-12-10T03:56:46.464Z,948.49
2017-12-10T03:57:46.476Z,948.41
2017-12-10T03:58:46.486Z,948.4
2017-12-10T03:59:46.495Z,948.39
2017-12-10T04:00:46.506Z,948.38
2017-12-10T04:01:46.566Z,948.3
2017-12-10T04:02:46.528Z,948.3
2017-12-10T04:03:46.538Z,948.37
2017-12-10T04:04:46.549Z,948.35
2017-12-10T04:05:46.558Z,948.36
2017-12-10T04:06:46.569Z,948.35
2017-12-10T04:07:46.579Z,948.36
2017-12-10T04:08:46.590Z,948.31
2017-12-10T04:09:46.600Z,948.32
2017-12-10T04:10:46.625Z,948.29
2017-12-10T04:11:46.621Z,948.25
2017-12-10T04:12:46.632Z,948.25
2017-12-10T04:13:46.642Z,948.25
2017-12-10T04:14:46.653Z,948.25
2017-12-10T04:15:46.662Z,948.27
2017-12-10T04:16:46.725Z,948.27
2017-12-10T04:17:46.684Z,948.24
2017-12-10T04:18:46.694Z,948.17
2017-12-10T04:19:46.703Z,948.2
2017-12-10T04:20:46.714Z,948.2
2017-12-10T04:21:46.724Z,948.14
2017-12-10T04:22:46.734Z,948.13
2017-12-10T04:23:46.746Z,948.14
2017-12-10T04:24:46.755Z,948.2
2017-12-10T04:25:46.765Z,948.13
2017-12-10T04:26:46.776Z,948.16
2017-12-10T04:27:46.786Z,948.15
2017-12-10T04:28:46.795Z,948.16
2017-12-10T04:29:46.806Z,948.16
2017-12-10T04:30:46.817Z,948.16
2017-12-10T04:31:46.878Z,948.18
2017-12-10T04:32:46.837Z,948.2
2017-12-10T04:33:46.847Z,948.13
2017-12-10T04:34:46.858Z,948.12
2017-12-10T04:35:46.869Z,948.04
2017-12-10T04:36:46.879Z,948.07
2017-12-10T04:37:46.890Z,948.03
2017-12-10T04:38:46.900Z,948.06
2017-12-10T04:39:46.909Z,948.06
2017-12-10T04:40:46.919Z,948.05
2017-12-10T04:41:46.930Z,948.02
2017-12-10T04:42:46.941Z,947.99
2017-12-10T04:43:46.952Z,947.95
2017-12-10T04:44:46.961Z,947.93
2017-12-10T04:45:46.971Z,947.92
2017-12-10T04:46:46.981Z,947.89
2017-12-10T04:47:47.041Z,947.84
2017-12-10T04:48:47.002Z,947.84
2017-12-10T04:49:47.013Z,947.8
2017-12-10T04:50:47.022Z,947.78
2017-12-10T04:51:47.033Z,947.66
2017-12-10T04:52:47.043Z,947.71
2017-12-10T04:53:47.054Z,947.67
2017-12-10T04:54:47.064Z,947.63
2017-12-10T04:55:47.075Z,947.59
2017-12-10T04:56:47.087Z,947.53
2017-12-10T04:57:47.096Z,947.49
2017-12-10T04:58:47.107Z,947.46
2017-12-10T04:59:47.116Z,947.46
2017-12-10T05:00:47.127Z,947.38
2017-12-10T05:01:47.136Z,947.34
2017-12-10T05:02:47.197Z,947.36
2017-12-10T05:03:47.157Z,947.34
2017-12-10T05:04:47.166Z,947.31
2017-12-10T05:05:47.178Z,947.28
2017-12-10T05:06:47.190Z,947.29
2017-12-10T05:07:47.198Z,947.22
2017-12-10T05:08:47.209Z,947.2
2017-12-10T05:09:47.221Z,947.18
2017-12-10T05:10:47.230Z,947.17
2017-12-10T05:11:47.241Z,947.17
2017-12-10T05:12:47.250Z,947.15
2017-12-10T05:13:47.261Z,947.12
2017-12-10T05:14:47.274Z,947.03
2017-12-10T05:15:47.280Z,947.04
2017-12-10T05:16:47.310Z,947.04
2017-12-10T05:17:47.301Z,946.98
2017-12-10T05:18:47.361Z,947
2017-12-10T05:19:47.321Z,946.95
2017-12-10T05:20:47.332Z,946.96
2017-12-10T05:21:47.340Z,946.93
2017-12-10T05:22:47.351Z,946.91
2017-12-10T05:23:47.377Z,946.93
2017-12-10T05:24:47.372Z,946.91
2017-12-10T05:25:47.382Z,946.91
2017-12-10T05:26:47.391Z,946.86
2017-12-10T05:27:47.402Z,946.84
2017-12-10T05:28:47.411Z,946.88
2017-12-10T05:29:47.422Z,946.84
2017-12-10T05:30:47.449Z,946.83
2017-12-10T05:31:47.442Z,946.8
2017-12-10T05:32:47.451Z,946.79
2017-12-10T05:33:47.531Z,946.76
2017-12-10T05:34:47.472Z,946.72
2017-12-10T05:35:47.482Z,946.68
2017-12-10T05:36:47.494Z,946.7
2017-12-10T05:37:47.510Z,946.66
2017-12-10T05:38:47.524Z,946.6
2017-12-10T05:39:47.526Z,946.66
2017-12-10T05:40:47.533Z,946.63
2017-12-10T05:41:47.543Z,946.61
2017-12-10T05:42:47.553Z,946.63
2017-12-10T05:43:47.563Z,946.54
2017-12-10T05:44:47.575Z,946.54
2017-12-10T05:45:47.593Z,946.52
2017-12-10T05:46:47.593Z,946.47
2017-12-10T05:47:47.603Z,946.45
2017-12-10T05:48:47.665Z,946.52
2017-12-10T05:49:47.625Z,946.48
2017-12-10T05:50:47.634Z,946.4
2017-12-10T05:51:47.646Z,946.39
2017-12-10T05:52:47.654Z,946.36
2017-12-10T05:53:47.664Z,946.41
2017-12-10T05:54:47.677Z,946.4
2017-12-10T05:55:47.684Z,946.35
2017-12-10T05:56:47.693Z,946.4
2017-12-10T05:57:47.703Z,946.42
2017-12-10T05:58:47.714Z,946.37
2017-12-10T05:59:47.724Z,946.31
2017-12-10T06:00:47.734Z,946.25
2017-12-10T06:01:47.744Z,946.26
2017-12-10T06:02:47.753Z,946.21
2017-12-10T06:03:47.913Z,946.16
2017-12-10T06:04:47.772Z,946.19
2017-12-10T06:05:47.791Z,946.14
2017-12-10T06:06:47.793Z,946.15
2017-12-10T06:07:47.802Z,946.1
2017-12-10T06:08:47.812Z,946.07
2017-12-10T06:09:47.821Z,946.04
2017-12-10T06:10:47.835Z,946.02
2017-12-10T06:11:47.840Z,945.99
2017-12-10T06:12:47.854Z,945.97
2017-12-10T06:13:47.861Z,945.95
2017-12-10T06:14:47.874Z,945.87
2017-12-10T06:15:47.880Z,945.89
2017-12-10T06:16:47.890Z,945.91
2017-12-10T06:17:47.903Z,945.88
2017-12-10T06:18:47.960Z,945.86
2017-12-10T06:19:47.925Z,945.79
2017-12-10T06:20:47.932Z,945.78
2017-12-10T06:21:47.939Z,945.72
2017-12-10T06:22:47.952Z,945.73
2017-12-10T06:23:47.958Z,945.64
2017-12-10T06:24:47.969Z,945.59
2017-12-10T06:25:47.978Z,945.61
2017-12-10T06:26:47.988Z,945.55
2017-12-10T06:27:47.998Z,945.53
2017-12-10T06:28:48.008Z,945.55
2017-12-10T06:29:48.018Z,945.49
2017-12-10T06:30:48.028Z,945.44
2017-12-10T06:31:48.039Z,945.39
2017-12-10T06:32:48.047Z,945.4
2017-12-10T06:33:48.108Z,945.39
2017-12-10T06:34:48.068Z,945.33
2017-12-10T06:35:48.077Z,945.31
2017-12-10T06:36:48.087Z,945.24
2017-12-10T06:37:48.096Z,945.2
2017-12-10T06:38:48.107Z,945.23
2017-12-10T06:39:48.118Z,945.22
2017-12-10T06:40:48.128Z,945.15
2017-12-10T06:41:48.136Z,945.2
2017-12-10T06:42:48.148Z,945.17
2017-12-10T06:43:48.156Z,945.17
2017-12-10T06:44:48.165Z,945.12
2017-12-10T06:45:48.176Z,945.15
2017-12-10T06:46:48.186Z,945.17
2017-12-10T06:47:48.196Z,945.11
2017-12-10T06:48:48.256Z,945.1
2017-12-10T06:49:48.216Z,945.02
2017-12-10T06:50:48.227Z,945.04
2017-12-10T06:51:48.236Z,944.99
2017-12-10T06:52:48.245Z,945.02
2017-12-10T06:53:48.256Z,944.96
2017-12-10T06:54:48.264Z,944.9
2017-12-10T06:55:48.274Z,944.89
2017-12-10T06:56:48.284Z,944.86
2017-12-10T06:57:48.294Z,944.83
2017-12-10T06:58:48.305Z,944.76
2017-12-10T06:59:48.315Z,944.72
2017-12-10T07:00:48.325Z,944.62
2017-12-10T07:01:48.335Z,944.64
2017-12-10T07:02:48.345Z,944.56
2017-12-10T07:03:48.405Z,944.55
2017-12-10T07:04:48.363Z,944.53
2017-12-10T07:05:48.374Z,944.45
2017-12-10T07:06:48.384Z,944.46
2017-12-10T07:07:48.394Z,944.4
2017-12-10T07:08:48.403Z,944.4
2017-12-10T07:09:48.413Z,944.37
2017-12-10T07:10:48.423Z,944.32
2017-12-10T07:11:48.432Z,944.34
2017-12-10T07:12:48.443Z,944.31
2017-12-10T07:13:48.453Z,944.28
2017-12-10T07:14:48.463Z,944.25
2017-12-10T07:15:48.473Z,944.21
2017-12-10T07:16:48.481Z,944.18
2017-12-10T07:17:48.492Z,944.24
2017-12-10T07:18:48.555Z,944.21
2017-12-10T07:19:48.514Z,944.21
2017-12-10T07:20:48.521Z,944.26
2017-12-10T07:21:48.535Z,944.16
2017-12-10T07:22:48.541Z,944.12
2017-12-10T07:23:48.550Z,944.12
2017-12-10T07:24:48.561Z,944.02
2017-12-10T07:25:48.571Z,943.99
2017-12-10T07:26:48.581Z,943.94
2017-12-10T07:27:48.590Z,943.87
2017-12-10T07:28:48.601Z,943.77
2017-12-10T07:29:48.610Z,943.74
2017-12-10T07:30:48.621Z,943.68
2017-12-10T07:31:48.631Z,943.67
2017-12-10T07:32:48.639Z,943.62
2017-12-10T07:33:48.701Z,943.56
2017-12-10T07:34:48.659Z,943.54
2017-12-10T07:35:48.668Z,943.54
2017-12-10T07:36:48.679Z,943.5
2017-12-10T07:37:48.689Z,943.47
2017-12-10T07:38:48.798Z,943.45
2017-12-10T07:39:48.709Z,943.39
2017-12-10T07:40:48.718Z,943.35
2017-12-10T07:41:48.728Z,943.29
2017-12-10T07:42:48.738Z,943.31
2017-12-10T07:43:48.748Z,943.19
2017-12-10T07:44:48.762Z,943.19
2017-12-10T07:45:48.767Z,943.15
2017-12-10T07:46:48.778Z,943.11
2017-12-10T07:47:48.787Z,943.08
2017-12-10T07:48:48.798Z,943
2017-12-10T07:49:48.807Z,942.95
2017-12-10T07:50:48.817Z,942.88
2017-12-10T07:51:48.826Z,942.9
2017-12-10T07:52:48.838Z,942.83
2017-12-10T07:53:48.847Z,942.81
2017-12-10T07:54:48.856Z,942.77
2017-12-10T07:55:48.867Z,942.72
2017-12-10T07:56:48.877Z,942.65
2017-12-10T07:57:48.888Z,942.63
2017-12-10T07:58:48.899Z,942.55
2017-12-10T07:59:48.908Z,942.52
2017-12-10T08:00:48.917Z,942.43
2017-12-10T08:01:48.930Z,942.34
2017-12-10T08:02:48.938Z,942.28
2017-12-10T08:03:48.948Z,942.22
2017-12-10T08:04:48.959Z,942.13
2017-12-10T08:05:48.970Z,942.13
2017-12-10T08:06:48.980Z,942.07
2017-12-10T08:07:48.990Z,942.04
2017-12-10T08:08:49.002Z,942.07
2017-12-10T08:09:49.011Z,942.02
2017-12-10T08:10:49.022Z,942.01
2017-12-10T08:11:49.032Z,942.02
2017-12-10T08:12:49.044Z,941.97
2017-12-10T08:13:49.053Z,941.98
2017-12-10T08:14:49.062Z,941.98
2017-12-10T08:15:49.073Z,941.94
2017-12-10T08:16:49.085Z,941.92
2017-12-10T08:17:49.094Z,941.93
2017-12-10T08:18:49.104Z,941.94
2017-12-10T08:19:49.116Z,941.98
2017-12-10T08:20:49.174Z,942.02
2017-12-10T08:21:49.136Z,942.01
2017-12-10T08:22:49.144Z,942.01
2017-12-10T08:23:49.156Z,942.01
2017-12-10T08:24:49.167Z,941.95
2017-12-10T08:25:49.175Z,941.92
2017-12-10T08:26:49.188Z,941.87
2017-12-10T08:27:49.204Z,941.78
2017-12-10T08:28:49.208Z,941.76
2017-12-10T08:29:49.219Z,941.71
2017-12-10T08:30:49.230Z,941.66
2017-12-10T08:31:49.247Z,941.6
2017-12-10T08:32:49.253Z,941.54
2017-12-10T08:33:49.266Z,941.49
2017-12-10T08:34:49.275Z,941.49
2017-12-10T08:35:49.334Z,941.47
2017-12-10T08:36:49.296Z,941.44
2017-12-10T08:37:49.306Z,941.42
2017-12-10T08:38:49.319Z,941.41
2017-12-10T08:39:49.329Z,941.34
2017-12-10T08:40:49.339Z,941.27
2017-12-10T08:41:49.352Z,941.25
2017-12-10T08:42:49.416Z,941.18
2017-12-10T08:43:49.375Z,941.18
2017-12-10T08:44:49.385Z,941.17
2017-12-10T08:45:49.396Z,941.11
2017-12-10T08:46:49.409Z,941.07
2017-12-10T08:47:49.419Z,941.02
2017-12-10T08:48:49.432Z,941.02
2017-12-10T08:49:49.444Z,940.92
2017-12-10T08:50:49.454Z,940.95
2017-12-10T08:51:49.466Z,940.88
2017-12-10T08:52:49.481Z,940.86
2017-12-10T08:53:49.489Z,940.82
2017-12-10T08:54:49.501Z,940.73
2017-12-10T08:55:49.513Z,940.66
2017-12-10T08:56:49.526Z,940.6
2017-12-10T08:57:49.536Z,940.5
2017-12-10T08:58:49.547Z,940.52
2017-12-10T08:59:49.560Z,940.49
2017-12-10T09:00:49.580Z,940.5
2017-12-10T09:01:49.594Z,940.47
2017-12-10T09:02:49.603Z,940.39
2017-12-10T09:03:49.608Z,940.27
2017-12-10T09:04:49.619Z,940.22
2017-12-10T09:05:49.632Z,940.18
2017-12-10T09:06:49.643Z,940.14
2017-12-10T09:07:49.662Z,940.1
2017-12-10T09:08:49.677Z,940.02
2017-12-10T09:09:49.680Z,939.98
2017-12-10T09:10:49.691Z,939.96
2017-12-10T09:11:49.702Z,939.92
2017-12-10T09:12:49.715Z,939.84
2017-12-10T09:13:49.728Z,939.82
2017-12-10T09:14:49.739Z,939.77
2017-12-10T09:15:49.751Z,939.76
2017-12-10T09:16:49.763Z,939.79
2017-12-10T09:17:49.976Z,939.75
2017-12-10T09:18:49.788Z,939.69
2017-12-10T09:19:49.800Z,939.62
2017-12-10T09:20:49.811Z,939.57
2017-12-10T09:21:49.823Z,939.46
2017-12-10T09:22:49.833Z,939.41
2017-12-10T09:23:49.846Z,939.35
2017-12-10T09:24:49.857Z,939.31
2017-12-10T09:25:49.871Z,939.22
2017-12-10T09:26:49.882Z,939.26
2017-12-10T09:27:49.894Z,939.22
2017-12-10T09:28:49.905Z,939.19
2017-12-10T09:29:49.919Z,939.18
2017-12-10T09:30:49.930Z,939.18
2017-12-10T09:31:49.942Z,939.03
2017-12-10T09:32:49.953Z,938.89
2017-12-10T09:33:49.971Z,938.92
2017-12-10T09:34:49.980Z,938.87
2017-12-10T09:35:49.989Z,938.9
2017-12-10T09:36:50.051Z,938.91
2017-12-10T09:37:50.015Z,938.89
2017-12-10T09:38:50.025Z,938.84
2017-12-10T09:39:50.037Z,938.76
2017-12-10T09:40:50.050Z,938.77
2017-12-10T09:41:50.063Z,938.77
2017-12-10T09:42:50.080Z,938.72
2017-12-10T09:43:50.084Z,938.67
2017-12-10T09:44:50.097Z,938.65
2017-12-10T09:45:50.108Z,938.58
2017-12-10T09:46:50.120Z,938.58
2017-12-10T09:47:50.130Z,938.57
2017-12-10T09:48:50.145Z,938.55
2017-12-10T09:49:50.153Z,938.52
2017-12-10T09:50:50.166Z,938.4
2017-12-10T09:51:50.200Z,938.28
2017-12-10T09:52:50.189Z,938.23
2017-12-10T09:53:50.202Z,938.13
2017-12-10T09:54:50.213Z,938.09
2017-12-10T09:55:50.225Z,938.1
2017-12-10T09:56:50.237Z,938.06
2017-12-10T09:57:50.249Z,938.09
2017-12-10T09:58:50.280Z,938.02
2017-12-10T09:59:50.272Z,938.02
2017-12-10T10:00:50.285Z,938.01
2017-12-10T10:01:50.297Z,937.99
2017-12-10T10:02:50.308Z,937.96
2017-12-10T10:03:50.322Z,937.88
2017-12-10T10:04:50.332Z,937.77
2017-12-10T10:05:50.346Z,937.73
2017-12-10T10:06:50.357Z,937.71
2017-12-10T10:07:50.418Z,937.67
2017-12-10T10:08:50.382Z,937.61
2017-12-10T10:09:50.393Z,937.55
2017-12-10T10:10:50.406Z,937.57
2017-12-10T10:11:50.416Z,937.49
2017-12-10T10:12:50.430Z,937.55
2017-12-10T10:13:50.442Z,937.49
2017-12-10T10:14:50.454Z,937.4
2017-12-10T10:15:50.464Z,937.35
2017-12-10T10:16:50.476Z,937.32
2017-12-10T10:17:50.489Z,937.23
2017-12-10T10:18:50.502Z,937.16
2017-12-10T10:19:50.512Z,937.15
2017-12-10T10:20:50.525Z,937.07
2017-12-10T10:21:50.536Z,937.12
2017-12-10T10:22:50.597Z,936.99
2017-12-10T10:23:50.560Z,936.89
2017-12-10T10:24:50.573Z,936.82
2017-12-10T10:25:50.585Z,936.76
2017-12-10T10:26:50.595Z,936.74
2017-12-10T10:27:50.607Z,936.68
2017-12-10T10:28:50.620Z,936.8
2017-12-10T10:29:50.632Z,936.71
2017-12-10T10:30:50.644Z,936.72
2017-12-10T10:31:50.656Z,936.73
2017-12-10T10:32:50.669Z,936.66
2017-12-10T10:33:50.679Z,936.64
2017-12-10T10:34:50.692Z,936.61
2017-12-10T10:35:50.703Z,936.57
2017-12-10T10:36:50.723Z,936.44
2017-12-10T10:37:50.777Z,936.35
2017-12-10T10:38:50.739Z,936.23
2017-12-10T10:39:50.752Z,936.15
2017-12-10T10:40:50.763Z,936.13
2017-12-10T10:41:50.776Z,936.22
2017-12-10T10:42:50.788Z,936.17
2017-12-10T10:43:50.801Z,936.11
2017-12-10T10:44:50.811Z,936.05
2017-12-10T10:45:50.822Z,936.07
2017-12-10T10:46:50.836Z,935.96
2017-12-10T10:47:50.848Z,935.91
2017-12-10T10:48:50.859Z,935.86
2017-12-10T10:49:50.872Z,935.77
2017-12-10T10:50:50.884Z,935.7
2017-12-10T10:51:50.933Z,935.7
2017-12-10T10:52:51.058Z,935.64
2017-12-10T10:53:50.921Z,935.66
2017-12-10T10:54:50.935Z,935.57
2017-12-10T10:55:50.967Z,935.47
2017-12-10T10:56:50.957Z,935.43
2017-12-10T10:57:50.972Z,935.34
2017-12-10T10:58:50.983Z,935.37
2017-12-10T10:59:50.993Z,935.28
2017-12-10T11:00:51.007Z,935.23
2017-12-10T11:01:51.019Z,935.18
2017-12-10T11:02:51.033Z,935.12
2017-12-10T11:03:51.044Z,935.23
2017-12-10T11:04:51.056Z,935.13
2017-12-10T11:05:51.066Z,935.11
2017-12-10T11:06:51.078Z,935.07
2017-12-10T11:07:51.141Z,935.05
2017-12-10T11:08:51.105Z,934.95
2017-12-10T11:09:51.116Z,934.93
2017-12-10T11:10:51.127Z,934.89
2017-12-10T11:11:51.140Z,934.81
2017-12-10T11:12:51.151Z,934.81
2017-12-10T11:13:51.163Z,934.72
2017-12-10T11:14:51.176Z,934.65
2017-12-10T11:15:51.189Z,934.66
2017-12-10T11:16:51.200Z,934.59
2017-12-10T11:17:51.215Z,934.52
2017-12-10T11:18:51.225Z,934.47
2017-12-10T11:19:51.237Z,934.41
2017-12-10T11:20:51.250Z,934.35
2017-12-10T11:21:51.302Z,934.25
2017-12-10T11:22:51.324Z,934.19
2017-12-10T11:23:51.286Z,934.13
2017-12-10T11:24:51.302Z,934.1
2017-12-10T11:25:51.311Z,934.16
2017-12-10T11:26:51.321Z,934.14
2017-12-10T11:27:51.334Z,934.13
2017-12-10T11:28:51.347Z,934.11
2017-12-10T11:29:51.358Z,934.15
2017-12-10T11:30:51.370Z,934.1
2017-12-10T11:31:51.382Z,934.07
2017-12-10T11:32:51.458Z,934.09
2017-12-10T11:33:51.407Z,934.05
2017-12-10T11:34:51.418Z,934.08
2017-12-10T11:35:51.429Z,934.05
2017-12-10T11:36:51.442Z,934.14
2017-12-10T11:37:51.505Z,934.06
2017-12-10T11:38:51.467Z,934.03
2017-12-10T11:39:51.527Z,933.99
2017-12-10T11:40:51.490Z,933.85
2017-12-10T11:41:51.503Z,933.82
2017-12-10T11:42:51.514Z,933.71
2017-12-10T11:43:51.527Z,933.71
2017-12-10T11:44:51.540Z,933.66
2017-12-10T11:45:51.551Z,933.44
2017-12-10T11:46:51.562Z,933.43
2017-12-10T11:47:51.575Z,933.46
2017-12-10T11:48:51.586Z,933.38
2017-12-10T11:49:51.600Z,933.44
2017-12-10T11:50:51.609Z,933.37
2017-12-10T11:51:51.621Z,933.31
2017-12-10T11:52:51.650Z,933.29
2017-12-10T11:53:51.646Z,933.22
2017-12-10T11:54:51.657Z,933.23
2017-12-10T11:55:51.669Z,933.32
2017-12-10T11:56:51.683Z,933.27
2017-12-10T11:57:51.693Z,933.19
2017-12-10T11:58:51.705Z,933.19
2017-12-10T11:59:51.720Z,933.13
2017-12-10T12:00:51.729Z,933.11
2017-12-10T12:01:51.742Z,933.11
2017-12-10T12:02:51.753Z,933.03
2017-12-10T12:03:51.766Z,933.01
2017-12-10T12:04:51.777Z,932.96
2017-12-10T12:05:51.788Z,932.93
2017-12-10T12:06:51.800Z,932.87
2017-12-10T12:07:51.812Z,932.83
2017-12-10T12:08:51.824Z,932.8
2017-12-10T12:09:51.836Z,932.83
2017-12-10T12:10:51.850Z,932.75
2017-12-10T12:11:51.860Z,932.72
2017-12-10T12:12:51.871Z,932.66
2017-12-10T12:13:51.883Z,932.62
2017-12-10T12:14:51.896Z,932.55
2017-12-10T12:15:51.908Z,932.47
2017-12-10T12:16:51.920Z,932.47
2017-12-10T12:17:51.933Z,932.38
2017-12-10T12:18:51.944Z,932.27
2017-12-10T12:19:51.955Z,932.3
2017-12-10T12:20:51.967Z,932.21
2017-12-10T12:21:51.983Z,932.15
2017-12-10T12:22:51.991Z,932.08
2017-12-10T12:23:52.002Z,932.02
2017-12-10T12:24:52.016Z,931.9
2017-12-10T12:25:52.027Z,931.8
2017-12-10T12:26:52.038Z,931.73
2017-12-10T12:27:52.049Z,931.66
2017-12-10T12:28:52.062Z,931.63
2017-12-10T12:29:52.075Z,931.44
2017-12-10T12:30:52.085Z,931.44